createdAt,value
2022-08-09T00:02:06.344Z,97.47
2022-08-09T00:04:36.525Z,97.40
2022-08-09T00:07:10.449Z,97.11
2022-08-09T00:09:40.764Z,96.96
2022-08-09T00:12:22.845Z,96.78
2022-08-09T00:14:57.502Z,96.90
2022-08-09T00:18:07.727Z,96.74
2022-08-09T00:20:25.708Z,96.83
2022-08-09T00:23:08.461Z,97.14
2022-08-09T00:25:51.783Z,97.18
2022-08-09T00:28:23.538Z,97.22
2022-08-09T00:30:59.651Z,97.07
2022-08-09T00:33:32.511Z,96.91
2022-08-09T00:36:02.959Z,96.99
2022-08-09T00:38:32.710Z,97.15
2022-08-09T00:41:02.791Z,96.85
2022-08-09T00:44:13.720Z,97.08
2022-08-09T00:46:55.831Z,97.00
2022-08-09T00:49:20.585Z,97.03
2022-08-09T00:51:55.858Z,96.92
2022-08-09T00:54:31.595Z,96.84
2022-08-09T00:57:08.954Z,96.49
2022-08-09T00:59:46.732Z,96.50
2022-08-09T01:02:32.528Z,96.68
2022-08-09T01:05:13.735Z,96.66
2022-08-09T01:08:00.573Z,96.85
2022-08-09T01:10:37.414Z,96.58
2022-08-09T01:13:17.019Z,96.69
2022-08-09T01:15:52.507Z,96.62
2022-08-09T01:18:30.264Z,96.68
2022-08-09T01:21:12.929Z,96.88
2022-08-09T01:24:02.107Z,96.87
2022-08-09T01:26:56.061Z,97.06
2022-08-09T01:29:48.641Z,97.21
2022-08-09T01:32:30.308Z,97.48
2022-08-09T01:35:17.969Z,97.39
2022-08-09T01:38:10.019Z,97.39
2022-08-09T01:40:45.229Z,97.48
2022-08-09T01:43:26.394Z,97.60
2022-08-09T01:45:57.964Z,97.58
2022-08-09T01:48:31.588Z,97.74
2022-08-09T01:51:02.678Z,97.78
2022-08-09T01:53:41.392Z,97.79
2022-08-09T01:56:13.476Z,97.91
2022-08-09T01:58:49.827Z,97.81
2022-08-09T02:01:30.426Z,97.93
2022-08-09T02:04:12.878Z,97.91
2022-08-09T02:06:59.291Z,97.79
2022-08-09T02:09:42.154Z,97.38
2022-08-09T02:12:21.286Z,97.26
2022-08-09T02:14:57.525Z,97.29
2022-08-09T02:18:00.003Z,97.32
2022-08-09T02:20:25.063Z,97.27
2022-08-09T02:23:08.106Z,97.22
2022-08-09T02:25:42.776Z,97.41
2022-08-09T02:28:26.262Z,97.21
2022-08-09T02:31:05.907Z,97.19
2022-08-09T02:34:07.447Z,97.32
2022-08-09T02:36:34.847Z,97.27
2022-08-09T02:39:14.278Z,97.35
2022-08-09T02:41:56.445Z,97.44
2022-08-09T02:44:30.841Z,97.61
2022-08-09T02:47:06.931Z,97.44
2022-08-09T02:49:45.217Z,97.69
2022-08-09T02:52:18.169Z,97.67
2022-08-09T02:54:51.177Z,97.73
2022-08-09T02:57:25.677Z,97.71
2022-08-09T03:00:21.079Z,97.84
2022-08-09T03:02:58.712Z,97.76
2022-08-09T03:05:34.182Z,97.85
2022-08-09T03:08:05.704Z,97.67
2022-08-09T03:10:37.767Z,97.74
2022-08-09T03:13:09.921Z,97.86
2022-08-09T03:16:06.254Z,97.64
2022-08-09T03:18:35.653Z,97.74
2022-08-09T03:21:09.307Z,97.96
2022-08-09T03:23:39.266Z,97.88
2022-08-09T03:26:09.629Z,97.86
2022-08-09T03:28:43.618Z,97.73
2022-08-09T03:31:21.385Z,97.82
2022-08-09T03:33:56.424Z,97.78
2022-08-09T03:36:28.122Z,97.85
2022-08-09T03:38:58.395Z,97.78
2022-08-09T03:41:30.244Z,97.85
2022-08-09T03:44:15.536Z,97.78
2022-08-09T03:46:46.602Z,97.85
2022-08-09T03:49:21.348Z,97.91
2022-08-09T03:52:00.334Z,97.81
2022-08-09T03:54:34.667Z,98.00
2022-08-09T03:57:18.089Z,97.94
2022-08-09T03:59:54.129Z,98.08
2022-08-09T04:02:28.778Z,98.00
2022-08-09T04:05:06.551Z,98.10
2022-08-09T04:07:53.028Z,98.02
2022-08-09T04:10:28.866Z,98.11
2022-08-09T04:13:04.523Z,98.38
2022-08-09T04:16:18.379Z,98.50
2022-08-09T04:18:25.004Z,98.79
2022-08-09T04:20:57.970Z,98.71
2022-08-09T04:23:27.749Z,98.85
2022-08-09T04:25:58.214Z,98.99
2022-08-09T04:28:33.959Z,99.05
2022-08-09T04:31:09.873Z,99.03
2022-08-09T04:33:52.381Z,99.35
2022-08-09T04:36:28.162Z,99.35
2022-08-09T04:39:00.428Z,99.52
2022-08-09T04:41:33.241Z,99.61
2022-08-09T04:44:09.543Z,99.91
2022-08-09T04:46:59.009Z,100.00
2022-08-09T04:49:52.347Z,100.00
2022-08-09T04:52:28.334Z,100.00
2022-08-09T04:54:59.532Z,100.00
2022-08-09T04:57:58.702Z,100.00
2022-08-09T05:00:20.090Z,100.00
2022-08-09T05:02:52.601Z,100.00
2022-08-09T05:05:31.769Z,100.00
2022-08-09T05:08:15.706Z,100.00
2022-08-09T05:10:47.062Z,100.00
2022-08-09T05:13:17.000Z,100.00
2022-08-09T05:15:47.953Z,100.00
2022-08-09T05:18:37.955Z,98.58
2022-08-09T05:21:10.025Z,97.42
2022-08-09T05:24:01.570Z,96.41
2022-08-09T05:26:36.554Z,95.60
2022-08-09T05:29:07.234Z,94.42
2022-08-09T05:31:56.405Z,93.28
2022-08-09T05:34:31.328Z,92.40
2022-08-09T05:37:05.929Z,91.95
2022-08-09T05:39:43.322Z,90.42
2022-08-09T05:42:17.427Z,90.18
2022-08-09T05:44:52.357Z,89.89
2022-08-09T05:47:23.177Z,89.43
2022-08-09T05:50:26.627Z,89.03
2022-08-09T05:52:53.409Z,88.69
2022-08-09T05:55:26.642Z,88.38
2022-08-09T05:57:58.381Z,88.08
2022-08-09T06:00:30.205Z,87.76
2022-08-09T06:03:00.710Z,87.28
2022-08-09T06:05:57.272Z,86.73
2022-08-09T06:08:24.484Z,86.05
2022-08-09T06:10:59.209Z,85.01
2022-08-09T06:13:33.933Z,84.58
2022-08-09T06:16:04.797Z,83.58
2022-08-09T06:18:36.459Z,82.35
2022-08-09T06:21:08.241Z,82.12
2022-08-09T06:23:55.126Z,81.96
2022-08-09T06:26:31.868Z,81.58
2022-08-09T06:29:04.760Z,81.39
2022-08-09T06:31:40.500Z,80.32
2022-08-09T06:34:30.792Z,80.33
2022-08-09T06:37:00.881Z,80.46
2022-08-09T06:39:48.790Z,79.82
2022-08-09T06:42:28.529Z,79.75
2022-08-09T06:45:09.209Z,79.17
2022-08-09T06:47:58.049Z,80.28
2022-08-09T06:50:31.834Z,77.74
2022-08-09T06:53:02.807Z,78.28
2022-08-09T06:55:33.336Z,79.17
2022-08-09T06:58:05.813Z,78.01
2022-08-09T07:00:51.244Z,76.74
2022-08-09T07:03:29.034Z,77.90
2022-08-09T07:06:03.866Z,76.74
2022-08-09T07:08:36.938Z,76.79
2022-08-09T07:11:07.451Z,77.22
2022-08-09T07:14:00.242Z,76.85
2022-08-09T07:16:43.423Z,76.61
2022-08-09T07:19:22.906Z,76.51
2022-08-09T07:21:57.315Z,76.08
2022-08-09T07:24:32.748Z,74.92
2022-08-09T07:27:26.970Z,75.84
2022-08-09T07:30:05.858Z,75.87
2022-08-09T07:32:36.954Z,72.84
2022-08-09T07:35:11.448Z,73.25
2022-08-09T07:37:45.388Z,73.72
2022-08-09T07:40:18.917Z,74.64
2022-08-09T07:42:52.572Z,74.65
2022-08-09T07:45:37.513Z,74.98
2022-08-09T07:48:25.825Z,73.90
2022-08-09T07:51:09.177Z,73.03
2022-08-09T07:54:06.622Z,72.13
2022-08-09T07:56:49.349Z,71.59
2022-08-09T07:59:34.633Z,73.36
2022-08-09T08:02:16.714Z,71.72
2022-08-09T08:04:53.670Z,70.86
2022-08-09T08:08:44.513Z,69.93
2022-08-09T08:10:13.674Z,69.43
2022-08-09T08:12:46.707Z,71.00
2022-08-09T08:15:23.107Z,70.02
2022-08-09T08:17:58.693Z,67.85
2022-08-09T08:20:32.967Z,68.32
2022-08-09T08:23:17.173Z,69.72
2022-08-09T08:25:50.337Z,67.93
2022-08-09T08:28:36.206Z,67.90
2022-08-09T08:31:14.451Z,67.95
2022-08-09T08:33:53.975Z,67.47
2022-08-09T08:36:29.346Z,68.95
2022-08-09T08:39:00.838Z,67.38
2022-08-09T08:41:42.098Z,69.23
2022-08-09T08:44:27.102Z,68.50
2022-08-09T08:47:02.598Z,69.89
2022-08-09T08:49:48.520Z,66.49
2022-08-09T08:52:53.069Z,67.04
2022-08-09T08:55:10.874Z,66.47
2022-08-09T08:57:43.787Z,67.21
2022-08-09T09:00:30.031Z,67.38
2022-08-09T09:03:11.408Z,66.73
2022-08-09T09:06:00.575Z,64.95
2022-08-09T09:08:40.479Z,64.83
2022-08-09T09:11:19.713Z,66.62
2022-08-09T09:13:56.933Z,67.04
2022-08-09T09:16:30.494Z,66.52
2022-08-09T09:22:07.662Z,67.53
2022-08-09T09:24:44.677Z,67.24
2022-08-09T09:28:04.055Z,66.46
2022-08-09T09:30:38.648Z,64.14
2022-08-09T09:33:13.579Z,65.13
2022-08-09T09:36:01.896Z,65.64
2022-08-09T09:38:43.384Z,65.89
2022-08-09T09:41:33.251Z,66.45
2022-08-09T09:44:25.854Z,66.65
2022-08-09T09:47:00.782Z,66.60
2022-08-09T09:49:56.478Z,66.72
2022-08-09T09:52:52.553Z,67.75
2022-08-09T09:55:24.019Z,66.64
2022-08-09T09:58:15.839Z,67.18
2022-08-09T10:00:52.655Z,66.78
2022-08-09T10:03:39.524Z,65.04
2022-08-09T10:06:09.367Z,65.78
2022-08-09T10:08:43.290Z,65.39
2022-08-09T10:12:00.874Z,64.86
2022-08-09T10:14:32.982Z,65.12
2022-08-09T10:17:17.235Z,65.30
2022-08-09T10:20:01.735Z,64.34
2022-08-09T10:22:33.511Z,64.25
2022-08-09T10:25:14.279Z,65.01
2022-08-09T10:27:57.086Z,63.82
2022-08-09T10:34:04.895Z,66.21
2022-08-09T10:36:12.234Z,65.96
2022-08-09T10:38:56.014Z,66.58
2022-08-09T10:41:27.898Z,66.74
2022-08-09T10:43:59.197Z,65.92
2022-08-09T10:46:55.595Z,65.17
2022-08-09T10:49:49.996Z,66.76
2022-08-09T10:52:29.077Z,66.40
2022-08-09T10:55:04.657Z,65.92
2022-08-09T10:57:38.600Z,66.59
2022-08-09T11:00:26.231Z,67.70
2022-08-09T11:03:16.340Z,66.17
2022-08-09T11:06:08.380Z,66.36
2022-08-09T11:08:47.875Z,65.82
2022-08-09T11:11:20.847Z,67.02
2022-08-09T11:14:10.294Z,68.52
2022-08-09T11:16:47.235Z,68.55
2022-08-09T11:19:18.609Z,69.40
2022-08-09T11:22:10.276Z,68.07
2022-08-09T11:25:02.235Z,69.98
2022-08-09T11:28:03.534Z,69.79
2022-08-09T11:30:35.750Z,69.44
2022-08-09T11:33:06.791Z,70.93
2022-08-09T11:35:49.670Z,70.27
2022-08-09T11:38:32.101Z,71.02
2022-08-09T11:41:05.420Z,71.90
2022-08-09T11:43:42.058Z,71.25
2022-08-09T11:46:11.980Z,71.39
2022-08-09T11:48:49.749Z,72.50
2022-08-09T11:53:02.062Z,72.73
2022-08-09T11:54:33.579Z,73.20
2022-08-09T11:57:46.992Z,71.39
2022-08-09T12:00:16.470Z,73.65
2022-08-09T12:02:51.193Z,73.71
2022-08-09T12:05:23.428Z,74.14
2022-08-09T12:07:54.840Z,73.98
2022-08-09T12:10:39.459Z,73.46
2022-08-09T12:14:07.508Z,73.62
2022-08-09T12:16:05.825Z,73.70
2022-08-09T12:18:55.760Z,73.33
2022-08-09T12:21:38.284Z,72.17
2022-08-09T12:24:10.654Z,73.20
2022-08-09T12:26:40.992Z,73.59
2022-08-09T12:29:33.536Z,73.07
2022-08-09T12:32:11.709Z,72.31
2022-08-09T12:34:42.450Z,72.60
2022-08-09T12:37:23.741Z,71.81
2022-08-09T12:40:07.338Z,70.79
2022-08-09T12:42:38.261Z,72.28
2022-08-09T12:45:34.005Z,71.03
2022-08-09T12:48:02.747Z,71.17
2022-08-09T12:50:32.345Z,70.85
2022-08-09T12:53:17.695Z,70.71
2022-08-09T12:56:16.202Z,70.51
2022-08-09T12:58:42.590Z,70.80
2022-08-09T13:01:26.962Z,69.46
2022-08-09T13:04:02.050Z,70.47
2022-08-09T13:06:34.584Z,70.34
2022-08-09T13:09:06.263Z,68.60
2022-08-09T13:11:39.131Z,68.76
2022-08-09T13:14:41.192Z,69.77
2022-08-09T13:17:03.544Z,68.70
2022-08-09T13:20:10.248Z,69.31
2022-08-09T13:22:37.417Z,68.49
2022-08-09T13:25:16.258Z,68.38
2022-08-09T13:27:54.749Z,68.26
2022-08-09T13:30:50.980Z,67.82
2022-08-09T13:33:24.487Z,68.23
2022-08-09T13:36:24.639Z,68.23
2022-08-09T13:38:46.083Z,68.65
2022-08-09T13:41:57.993Z,68.63
2022-08-09T13:44:17.891Z,69.56
2022-08-09T13:47:19.410Z,68.06
2022-08-09T13:49:56.330Z,69.05
2022-08-09T13:52:30.455Z,68.65
2022-08-09T13:55:02.125Z,69.52
2022-08-09T13:57:39.526Z,69.90
2022-08-09T14:00:12.469Z,70.65
2022-08-09T14:03:03.414Z,69.82
2022-08-09T14:05:58.778Z,69.27
2022-08-09T14:10:52.131Z,68.87
2022-08-09T14:14:16.477Z,67.98
2022-08-09T14:16:13.986Z,67.39
2022-08-09T14:18:45.635Z,67.43
2022-08-09T14:21:23.341Z,67.59
2022-08-09T14:23:56.621Z,68.08
2022-08-09T14:26:33.474Z,67.47
2022-08-09T14:29:08.319Z,67.09
2022-08-09T14:31:54.551Z,67.21
2022-08-09T14:34:27.423Z,66.86
2022-08-09T14:37:01.609Z,67.20
2022-08-09T14:48:14.463Z,64.14
2022-08-09T14:50:44.279Z,61.82
2022-08-09T14:53:16.832Z,65.20
2022-08-09T15:00:48.417Z,66.97
2022-08-09T15:05:26.362Z,64.44
2022-08-09T15:07:58.271Z,63.82
2022-08-09T15:10:28.737Z,63.43
2022-08-09T15:13:02.996Z,63.71
2022-08-09T15:15:34.288Z,64.10
2022-08-09T15:18:14.261Z,64.42
2022-08-09T15:21:58.618Z,64.83
2022-08-09T15:24:01.310Z,65.31
2022-08-09T15:26:31.745Z,65.69
2022-08-09T15:29:04.739Z,66.13
2022-08-09T15:31:40.735Z,66.43
2022-08-09T15:34:33.082Z,66.63
2022-08-09T15:37:37.011Z,67.05
2022-08-09T15:40:11.505Z,67.42
2022-08-09T15:42:43.368Z,67.68
2022-08-09T15:45:16.052Z,67.93
2022-08-09T15:48:05.188Z,68.04
2022-08-09T15:50:39.198Z,68.04
2022-08-09T15:54:02.037Z,68.32
2022-08-09T15:56:28.538Z,68.56
2022-08-09T16:01:26.081Z,68.99
2022-08-09T16:03:55.937Z,69.15
2022-08-09T16:06:35.392Z,68.90
2022-08-09T16:09:08.826Z,69.15
2022-08-09T16:11:40.659Z,69.08
2022-08-09T16:14:11.595Z,69.42
2022-08-09T16:16:48.134Z,69.44
2022-08-09T16:19:18.213Z,69.43
2022-08-09T16:21:52.020Z,69.48
2022-08-09T16:24:32.740Z,69.34
2022-08-09T16:27:05.097Z,69.43
2022-08-09T16:29:37.578Z,69.49
2022-08-09T16:32:34.183Z,69.67
2022-08-09T16:35:05.342Z,69.55
2022-08-09T16:37:55.180Z,69.79
2022-08-09T16:40:29.827Z,69.80
2022-08-09T16:43:09.926Z,70.15
2022-08-09T16:45:44.073Z,70.43
2022-08-09T16:48:42.504Z,70.37
2022-08-09T16:51:08.105Z,70.65
2022-08-09T16:54:08.953Z,70.74
2022-08-09T16:56:36.903Z,71.01
2022-08-09T16:59:18.634Z,71.29
2022-08-09T17:01:51.439Z,71.42
2022-08-09T17:04:25.910Z,71.39
2022-08-09T17:08:41.331Z,71.29
2022-08-09T17:09:48.237Z,71.50
2022-08-09T17:12:20.807Z,71.74
2022-08-09T17:14:57.211Z,72.20
2022-08-09T17:17:30.634Z,72.41
2022-08-09T17:20:32.452Z,72.75
2022-08-09T17:23:10.515Z,72.75
2022-08-09T17:25:45.100Z,72.87
2022-08-09T17:28:25.261Z,72.96
2022-08-09T17:30:56.841Z,72.95
2022-08-09T17:33:26.622Z,73.35
2022-08-09T17:36:06.077Z,73.56
2022-08-09T17:38:39.342Z,73.92
2022-08-09T17:41:11.026Z,73.84
2022-08-09T17:43:50.736Z,73.91
2022-08-09T17:46:35.963Z,74.13
2022-08-09T17:49:08.406Z,74.28
2022-08-09T17:51:39.605Z,74.59
2022-08-09T17:54:10.764Z,74.95
2022-08-09T17:56:45.813Z,75.04
2022-08-09T17:59:19.857Z,75.29
2022-08-09T18:02:11.705Z,75.54
2022-08-09T18:04:40.043Z,75.73
2022-08-09T18:07:09.853Z,75.83
2022-08-09T18:10:04.771Z,75.85
2022-08-09T18:12:40.707Z,76.21
2022-08-09T18:16:05.514Z,76.31
2022-08-09T18:18:26.025Z,76.71
2022-08-09T18:21:19.056Z,76.77
2022-08-09T18:24:12.524Z,76.97
2022-08-09T18:26:46.349Z,76.91
2022-08-09T18:30:41.159Z,77.05
2022-08-09T18:32:11.466Z,77.10
2022-08-09T18:34:43.601Z,77.16
2022-08-09T18:37:47.890Z,77.27
2022-08-09T18:40:03.459Z,77.42
2022-08-09T18:42:33.728Z,77.40
2022-08-09T18:45:08.674Z,77.76
2022-08-09T18:47:41.302Z,77.75
2022-08-09T18:50:12.339Z,77.89
2022-08-09T18:52:42.691Z,78.11
2022-08-09T18:55:14.047Z,78.30
2022-08-09T18:57:45.315Z,78.62
2022-08-09T19:00:20.158Z,78.77
2022-08-09T19:02:54.259Z,78.93
2022-08-09T19:05:49.013Z,79.00
2022-08-09T19:08:19.721Z,79.29
2022-08-09T19:10:50.727Z,79.65
2022-08-09T19:13:23.242Z,79.76
2022-08-09T19:16:09.390Z,79.89
2022-08-09T19:18:45.719Z,80.20
2022-08-09T19:21:15.898Z,80.23
2022-08-09T19:24:31.822Z,80.65
2022-08-09T19:26:38.906Z,80.70
2022-08-09T19:29:18.021Z,80.98
2022-08-09T19:31:51.641Z,81.05
2022-08-09T19:34:24.808Z,81.38
2022-08-09T19:36:57.584Z,81.46
2022-08-09T19:39:43.242Z,81.62
2022-08-09T19:42:19.704Z,81.92
2022-08-09T19:44:51.261Z,82.09
2022-08-09T19:47:23.558Z,82.27
2022-08-09T19:50:08.381Z,82.32
2022-08-09T19:52:49.412Z,82.43
2022-08-09T19:55:25.626Z,82.74
2022-08-09T19:57:55.936Z,82.84
2022-08-09T20:00:25.817Z,83.06
2022-08-09T20:04:11.217Z,83.30
2022-08-09T20:05:50.562Z,83.54
2022-08-09T20:08:33.416Z,83.85
2022-08-09T20:11:05.317Z,84.16
2022-08-09T20:13:37.158Z,84.15
2022-08-09T20:16:33.303Z,84.31
2022-08-09T20:19:43.087Z,84.64
2022-08-09T20:21:56.332Z,84.82
2022-08-09T20:24:31.863Z,85.13
2022-08-09T20:27:07.917Z,85.25
2022-08-09T20:29:39.031Z,85.32
2022-08-09T20:32:28.901Z,85.50
2022-08-09T20:35:01.721Z,85.75
2022-08-09T20:38:18.893Z,85.99
2022-08-09T20:40:27.648Z,85.97
2022-08-09T20:43:12.326Z,86.06
2022-08-09T20:45:59.628Z,86.16
2022-08-09T20:48:32.600Z,86.43
2022-08-09T20:51:03.355Z,86.42
2022-08-09T20:53:38.873Z,86.80
2022-08-09T20:56:20.311Z,86.93
2022-08-09T20:58:54.627Z,87.11
2022-08-09T21:01:34.321Z,87.04
2022-08-09T21:05:56.169Z,87.42
2022-08-09T21:07:11.498Z,87.45
2022-08-09T21:09:56.808Z,87.80
2022-08-09T21:15:27.420Z,87.95
2022-08-09T21:18:21.967Z,88.32
2022-08-09T21:20:54.642Z,88.42
2022-08-09T21:23:36.019Z,88.44
2022-08-09T21:26:18.587Z,88.66
2022-08-09T21:28:55.377Z,88.69
2022-08-09T21:31:48.473Z,88.84
2022-08-09T21:34:28.759Z,89.11
2022-08-09T21:36:59.192Z,89.26
2022-08-09T21:39:42.092Z,89.21
2022-08-09T21:42:14.878Z,89.32
2022-08-09T21:44:44.706Z,89.47
2022-08-09T21:47:18.153Z,89.63
2022-08-09T21:49:50.871Z,89.82
2022-08-09T21:52:23.445Z,89.65
2022-08-09T21:54:59.554Z,89.89
2022-08-09T21:57:59.504Z,89.92
2022-08-09T22:00:31.940Z,90.11
2022-08-09T22:03:05.935Z,90.16
2022-08-09T22:05:42.147Z,90.28
2022-08-09T22:08:15.076Z,90.12
2022-08-09T22:11:00.809Z,90.45
2022-08-09T22:13:42.359Z,90.45
2022-08-09T22:16:13.879Z,90.49
2022-08-09T22:18:54.955Z,90.38
2022-08-09T22:21:44.769Z,90.72
2022-08-09T22:24:21.139Z,90.59
2022-08-09T22:26:55.015Z,90.71
2022-08-09T22:29:38.453Z,90.74
2022-08-09T22:32:29.934Z,90.77
2022-08-09T22:35:06.880Z,90.82
2022-08-09T22:38:07.340Z,91.05
2022-08-09T22:40:37.963Z,91.11
2022-08-09T22:43:08.474Z,91.38
2022-08-09T22:48:12.888Z,91.32
2022-08-09T22:48:38.831Z,91.69
2022-08-09T22:51:23.852Z,91.72
2022-08-09T22:54:02.012Z,91.94
2022-08-09T22:56:33.797Z,92.00
2022-08-09T22:59:05.822Z,92.22
2022-08-09T23:01:56.621Z,92.47
2022-08-09T23:04:26.457Z,92.64
2022-08-09T23:07:17.383Z,92.90
2022-08-09T23:10:08.058Z,93.02
2022-08-09T23:12:37.962Z,93.21
2022-08-09T23:15:08.858Z,93.43
2022-08-09T23:17:41.335Z,93.80
2022-08-09T23:20:12.717Z,93.90
2022-08-09T23:22:42.670Z,94.01
2022-08-09T23:25:13.527Z,94.26
2022-08-09T23:27:57.430Z,94.48
2022-08-09T23:30:33.270Z,94.54
2022-08-09T23:33:05.667Z,94.72
2022-08-09T23:36:04.831Z,94.93
2022-08-09T23:38:25.734Z,95.14
2022-08-09T23:40:56.544Z,95.20
2022-08-09T23:43:26.370Z,95.32
2022-08-09T23:45:56.183Z,95.49
2022-08-09T23:48:28.533Z,95.66
2022-08-09T23:50:58.278Z,95.87
2022-08-09T23:53:29.040Z,95.98
2022-08-09T23:56:06.731Z,96.05
2022-08-09T23:58:36.765Z,96.01
